Observations for NEW YORK JF KENNEDY, NY (JFK)

KJFK 141151Z 33006KT 10SM FEW023 BKN260 M03/M09 A3045 RMK AO2 SLP310 T10331094 11028 21044 53004 $  
KJFK 141051Z 02005KT 10SM BKN260 M04/M09 A3044 RMK AO2 SLP306 T10391094 $   
KJFK 140951Z 04005KT 10SM FEW180 BKN250 M04/M09 A3044 RMK AO2 SLP308 T10391094 $
KJFK 140851Z 06007KT 10SM FEW180 OVC250 M04/M09 A3044 RMK AO2 SLP307 T10391094 58011 $  
KJFK 140751Z 05006KT 10SM SCT180 OVC250 M04/M09 A3045 RMK AO2 SLP312 T10391094 $
KJFK 140651Z 05004KT 10SM OVC180 M03/M09 A3046 RMK AO2 SLP314 T10281094 $   
KJFK 140551Z 02003KT 10SM BKN160 OVC250 M03/M09 A3047 RMK AO2 SLP318 T10331094 11006 21039 51009 $  
KJFK 140451Z 05004KT 10SM BKN250 M03/M09 A3047 RMK AO2 SLP316 T10281094 400171050 $ 
KJFK 140351Z 36003KT 10SM FEW200 BKN250 M02/M13 A3047 RMK AO2 SLP316 T10171128 $
KJFK 140251Z 03006KT 10SM BKN250 M03/M12 A3044 RMK AO2 SLP308 T10281122 50003   
KJFK 140151Z 34006KT 10SM BKN250 M01/M14 A3045 RMK AO2 SLP310 T10111139 
KJFK 140051Z 01008KT 10SM BKN250 M01/M14 A3044 RMK AO2 SLP306 T10111139 
KJFK 132351Z 36007KT 10SM SCT250 M01/M14 A3043 RMK AO2 SLP305 T10111144 10017 21011 53023   
KJFK 132251Z 33009KT 10SM SCT250 M01/M15 A3040 RMK AO2 SLP293 T10061150 
KJFK 132151Z 35008KT 10SM FEW060 FEW250 M01/M16 A3038 RMK AO2 SLP287 T10061156 $
KJFK 132051Z 35011KT 10SM FEW060 SCT250 01/M16 A3037 RMK AO2 SLP282 T00061156 53012 $   
KJFK 131951Z 30013G17KT 10SM FEW060 FEW250 02/M15 A3035 RMK AO2 SLP277 T00171150 $  
KJFK 131851Z 34013G20KT 10SM FEW060 FEW250 02/M14 A3034 RMK AO2 PK WND 31027/1838 SLP274 T00171144 $
KJFK 131751Z 33010KT 10SM FEW060 SCT250 01/M13 A3033 RMK AO2 SLP270 T00111133 10011 21050 58002 $   
KJFK 131651Z 33015KT 10SM FEW055 FEW250 01/M13 A3034 RMK AO2 SLP275 T00061128   
KJFK 131551Z 35018G27KT 10SM FEW055 M01/M13 A3034 RMK AO2 PK WND 34028/1518 SLP272 T10061128
KJFK 131451Z 33019G27KT 10SM FEW055 M02/M13 A3034 RMK AO2 PK WND 33030/1419 SLP272 T10171128 51018  
KJFK 131351Z 32020G28KT 10SM FEW050 M03/M13 A3032 RMK AO2 PK WND 32033/1317 SLP267 T10281128 $  
KJFK 131251Z 31018G26KT 10SM FEW050 M04/M12 A3031 RMK AO2 PK WND 31026/1251 SLP264 T10391122 $  
KJFK 131151Z 31017G22KT 10SM FEW050 M05/M13 A3028 RMK AO2 SLP254 70002 T10501128 11039 21050 51019 $